sensor_id;sensor_type;location;lat;lon;timestamp;P1;durP1;ratioP1;P2;durP2;ratioP2
6354;SDS011;3210;48.708;9.030;2022-08-23T00:01:40;8.53;;;3.23;;
6354;SDS011;3210;48.708;9.030;2022-08-23T00:04:09;6.67;;;2.50;;
6354;SDS011;3210;48.708;9.030;2022-08-23T00:06:39;5.27;;;2.03;;
6354;SDS011;3210;48.708;9.030;2022-08-23T00:09:07;6.63;;;2.80;;
6354;SDS011;3210;48.708;9.030;2022-08-23T00:11:36;5.67;;;2.57;;
6354;SDS011;3210;48.708;9.030;2022-08-23T00:14:13;5.10;;;2.37;;
6354;SDS011;3210;48.708;9.030;2022-08-23T00:16:42;8.20;;;3.07;;
6354;SDS011;3210;48.708;9.030;2022-08-23T00:19:10;3.23;;;2.87;;
6354;SDS011;3210;48.708;9.030;2022-08-23T00:21:39;3.90;;;2.50;;
6354;SDS011;3210;48.708;9.030;2022-08-23T00:24:06;4.33;;;2.40;;
6354;SDS011;3210;48.708;9.030;2022-08-23T00:26:52;2.83;;;2.10;;
6354;SDS011;3210;48.708;9.030;2022-08-23T00:29:21;4.53;;;2.10;;
6354;SDS011;3210;48.708;9.030;2022-08-23T00:31:50;3.93;;;2.47;;
6354;SDS011;3210;48.708;9.030;2022-08-23T00:34:17;3.53;;;2.53;;
6354;SDS011;3210;48.708;9.030;2022-08-23T00:36:46;6.70;;;2.70;;
6354;SDS011;3210;48.708;9.030;2022-08-23T00:39:13;4.00;;;2.17;;
6354;SDS011;3210;48.708;9.030;2022-08-23T00:41:40;4.47;;;2.17;;
6354;SDS011;3210;48.708;9.030;2022-08-23T00:44:08;2.67;;;2.40;;
6354;SDS011;3210;48.708;9.030;2022-08-23T00:46:58;5.30;;;2.20;;
6354;SDS011;3210;48.708;9.030;2022-08-23T00:49:43;2.60;;;2.40;;
6354;SDS011;3210;48.708;9.030;2022-08-23T00:52:17;7.90;;;3.13;;
6354;SDS011;3210;48.708;9.030;2022-08-23T00:54:48;4.67;;;2.60;;
6354;SDS011;3210;48.708;9.030;2022-08-23T00:57:18;2.70;;;2.43;;
6354;SDS011;3210;48.708;9.030;2022-08-23T00:59:46;3.20;;;2.70;;
6354;SDS011;3210;48.708;9.030;2022-08-23T01:02:13;3.90;;;2.30;;
6354;SDS011;3210;48.708;9.030;2022-08-23T01:04:41;2.77;;;2.57;;
6354;SDS011;3210;48.708;9.030;2022-08-23T01:07:14;9.40;;;2.80;;
6354;SDS011;3210;48.708;9.030;2022-08-23T01:09:50;3.07;;;2.67;;
6354;SDS011;3210;48.708;9.030;2022-08-23T01:12:22;15.93;;;3.70;;
6354;SDS011;3210;48.708;9.030;2022-08-23T01:14:55;2.80;;;2.20;;
6354;SDS011;3210;48.708;9.030;2022-08-23T01:17:24;4.60;;;2.40;;
6354;SDS011;3210;48.708;9.030;2022-08-23T01:19:56;5.33;;;2.43;;
6354;SDS011;3210;48.708;9.030;2022-08-23T01:22:30;5.03;;;1.80;;
6354;SDS011;3210;48.708;9.030;2022-08-23T01:25:03;5.00;;;2.40;;
6354;SDS011;3210;48.708;9.030;2022-08-23T01:27:32;3.10;;;1.90;;
6354;SDS011;3210;48.708;9.030;2022-08-23T01:29:59;5.07;;;2.40;;
6354;SDS011;3210;48.708;9.030;2022-08-23T01:32:26;2.60;;;1.77;;
6354;SDS011;3210;48.708;9.030;2022-08-23T01:34:53;5.13;;;2.23;;
6354;SDS011;3210;48.708;9.030;2022-08-23T01:37:20;3.77;;;2.10;;
6354;SDS011;3210;48.708;9.030;2022-08-23T01:39:47;6.17;;;2.77;;
6354;SDS011;3210;48.708;9.030;2022-08-23T01:42:15;2.80;;;2.20;;
6354;SDS011;3210;48.708;9.030;2022-08-23T01:44:42;2.80;;;2.40;;
6354;SDS011;3210;48.708;9.030;2022-08-23T01:47:09;2.17;;;2.00;;
6354;SDS011;3210;48.708;9.030;2022-08-23T01:49:36;2.63;;;2.43;;
6354;SDS011;3210;48.708;9.030;2022-08-23T01:52:02;2.37;;;2.27;;
6354;SDS011;3210;48.708;9.030;2022-08-23T01:54:29;3.03;;;2.53;;
6354;SDS011;3210;48.708;9.030;2022-08-23T01:56:56;2.37;;;1.87;;
6354;SDS011;3210;48.708;9.030;2022-08-23T01:59:24;3.13;;;1.90;;
6354;SDS011;3210;48.708;9.030;2022-08-23T02:01:51;3.00;;;2.10;;
6354;SDS011;3210;48.708;9.030;2022-08-23T02:04:21;3.97;;;2.80;;
6354;SDS011;3210;48.708;9.030;2022-08-23T02:06:48;4.97;;;2.73;;
6354;SDS011;3210;48.708;9.030;2022-08-23T02:09:15;3.13;;;2.47;;
6354;SDS011;3210;48.708;9.030;2022-08-23T02:11:42;2.43;;;2.23;;
6354;SDS011;3210;48.708;9.030;2022-08-23T02:14:10;5.97;;;2.43;;
6354;SDS011;3210;48.708;9.030;2022-08-23T02:16:43;2.47;;;2.00;;
6354;SDS011;3210;48.708;9.030;2022-08-23T02:19:13;3.50;;;2.17;;
6354;SDS011;3210;48.708;9.030;2022-08-23T02:21:40;2.93;;;1.90;;
6354;SDS011;3210;48.708;9.030;2022-08-23T02:24:09;2.00;;;1.90;;
6354;SDS011;3210;48.708;9.030;2022-08-23T02:26:38;3.67;;;2.17;;
6354;SDS011;3210;48.708;9.030;2022-08-23T02:29:06;2.13;;;2.03;;
6354;SDS011;3210;48.708;9.030;2022-08-23T02:31:33;3.00;;;2.10;;
6354;SDS011;3210;48.708;9.030;2022-08-23T02:34:03;5.13;;;2.37;;
6354;SDS011;3210;48.708;9.030;2022-08-23T02:36:31;5.13;;;2.50;;
6354;SDS011;3210;48.708;9.030;2022-08-23T02:38:58;2.73;;;2.40;;
6354;SDS011;3210;48.708;9.030;2022-08-23T02:41:25;4.50;;;2.43;;
6354;SDS011;3210;48.708;9.030;2022-08-23T02:43:52;2.50;;;2.23;;
6354;SDS011;3210;48.708;9.030;2022-08-23T02:46:19;2.97;;;1.90;;
6354;SDS011;3210;48.708;9.030;2022-08-23T02:48:47;2.33;;;2.13;;
6354;SDS011;3210;48.708;9.030;2022-08-23T02:51:15;2.30;;;2.10;;
6354;SDS011;3210;48.708;9.030;2022-08-23T02:53:42;2.80;;;2.60;;
6354;SDS011;3210;48.708;9.030;2022-08-23T02:56:10;1.97;;;1.87;;
6354;SDS011;3210;48.708;9.030;2022-08-23T02:58:38;2.20;;;2.10;;
6354;SDS011;3210;48.708;9.030;2022-08-23T03:01:05;9.23;;;2.13;;
6354;SDS011;3210;48.708;9.030;2022-08-23T03:03:39;2.90;;;2.67;;
6354;SDS011;3210;48.708;9.030;2022-08-23T03:06:06;2.60;;;2.40;;
6354;SDS011;3210;48.708;9.030;2022-08-23T03:08:34;2.07;;;1.97;;
6354;SDS011;3210;48.708;9.030;2022-08-23T03:11:01;1.80;;;1.70;;
6354;SDS011;3210;48.708;9.030;2022-08-23T03:13:35;3.60;;;1.90;;
6354;SDS011;3210;48.708;9.030;2022-08-23T03:16:03;3.87;;;2.57;;
6354;SDS011;3210;48.708;9.030;2022-08-23T03:18:30;3.30;;;2.03;;
6354;SDS011;3210;48.708;9.030;2022-08-23T03:20:57;2.40;;;2.20;;
6354;SDS011;3210;48.708;9.030;2022-08-23T03:23:23;2.03;;;1.70;;
6354;SDS011;3210;48.708;9.030;2022-08-23T03:25:52;3.73;;;2.50;;
6354;SDS011;3210;48.708;9.030;2022-08-23T03:28:19;2.37;;;2.10;;
6354;SDS011;3210;48.708;9.030;2022-08-23T03:30:45;5.43;;;2.17;;
6354;SDS011;3210;48.708;9.030;2022-08-23T03:33:12;3.30;;;2.47;;
6354;SDS011;3210;48.708;9.030;2022-08-23T03:35:39;2.47;;;2.23;;
6354;SDS011;3210;48.708;9.030;2022-08-23T03:38:06;2.40;;;2.20;;
6354;SDS011;3210;48.708;9.030;2022-08-23T03:40:33;4.60;;;2.33;;
6354;SDS011;3210;48.708;9.030;2022-08-23T03:43:02;8.73;;;2.57;;
6354;SDS011;3210;48.708;9.030;2022-08-23T03:45:29;1.70;;;1.60;;
6354;SDS011;3210;48.708;9.030;2022-08-23T03:47:57;3.50;;;2.20;;
6354;SDS011;3210;48.708;9.030;2022-08-23T03:50:24;2.03;;;1.93;;
6354;SDS011;3210;48.708;9.030;2022-08-23T03:52:51;4.07;;;2.47;;
6354;SDS011;3210;48.708;9.030;2022-08-23T03:55:18;2.50;;;2.30;;
6354;SDS011;3210;48.708;9.030;2022-08-23T03:57:45;4.27;;;2.50;;
6354;SDS011;3210;48.708;9.030;2022-08-23T04:00:15;2.70;;;2.20;;
6354;SDS011;3210;48.708;9.030;2022-08-23T04:02:42;2.23;;;2.00;;
6354;SDS011;3210;48.708;9.030;2022-08-23T04:05:09;2.30;;;2.03;;
6354;SDS011;3210;48.708;9.030;2022-08-23T04:07:36;3.83;;;2.77;;
6354;SDS011;3210;48.708;9.030;2022-08-23T04:10:04;2.47;;;2.13;;
6354;SDS011;3210;48.708;9.030;2022-08-23T04:12:33;2.77;;;2.53;;
6354;SDS011;3210;48.708;9.030;2022-08-23T04:15:00;3.00;;;2.30;;
6354;SDS011;3210;48.708;9.030;2022-08-23T04:17:28;2.70;;;2.50;;
6354;SDS011;3210;48.708;9.030;2022-08-23T04:19:55;3.27;;;2.27;;
6354;SDS011;3210;48.708;9.030;2022-08-23T04:22:22;3.50;;;2.47;;
6354;SDS011;3210;48.708;9.030;2022-08-23T04:25:04;2.20;;;1.93;;
6354;SDS011;3210;48.708;9.030;2022-08-23T04:27:31;3.83;;;2.80;;
6354;SDS011;3210;48.708;9.030;2022-08-23T04:29:58;3.27;;;2.97;;
6354;SDS011;3210;48.708;9.030;2022-08-23T04:32:24;2.37;;;2.17;;
6354;SDS011;3210;48.708;9.030;2022-08-23T04:34:53;3.43;;;2.47;;
6354;SDS011;3210;48.708;9.030;2022-08-23T04:37:19;3.33;;;2.97;;
6354;SDS011;3210;48.708;9.030;2022-08-23T04:39:47;2.60;;;2.20;;
6354;SDS011;3210;48.708;9.030;2022-08-23T04:42:34;3.00;;;2.23;;
6354;SDS011;3210;48.708;9.030;2022-08-23T04:45:05;2.10;;;1.90;;
6354;SDS011;3210;48.708;9.030;2022-08-23T04:47:32;7.73;;;2.73;;
6354;SDS011;3210;48.708;9.030;2022-08-23T04:50:04;2.53;;;2.33;;
6354;SDS011;3210;48.708;9.030;2022-08-23T04:52:32;3.77;;;2.17;;
6354;SDS011;3210;48.708;9.030;2022-08-23T04:54:59;2.23;;;2.07;;
6354;SDS011;3210;48.708;9.030;2022-08-23T04:57:26;2.67;;;2.47;;
6354;SDS011;3210;48.708;9.030;2022-08-23T04:59:53;2.90;;;2.10;;
6354;SDS011;3210;48.708;9.030;2022-08-23T05:02:20;4.13;;;3.00;;
6354;SDS011;3210;48.708;9.030;2022-08-23T05:04:47;6.30;;;2.50;;
6354;SDS011;3210;48.708;9.030;2022-08-23T05:07:15;2.53;;;2.33;;
6354;SDS011;3210;48.708;9.030;2022-08-23T05:09:42;7.60;;;2.73;;
6354;SDS011;3210;48.708;9.030;2022-08-23T05:12:08;6.50;;;2.73;;
6354;SDS011;3210;48.708;9.030;2022-08-23T05:14:35;2.97;;;2.23;;
6354;SDS011;3210;48.708;9.030;2022-08-23T05:17:03;4.83;;;2.37;;
6354;SDS011;3210;48.708;9.030;2022-08-23T05:19:30;3.40;;;3.10;;
6354;SDS011;3210;48.708;9.030;2022-08-23T05:21:56;3.47;;;2.50;;
6354;SDS011;3210;48.708;9.030;2022-08-23T05:24:25;6.00;;;2.50;;
6354;SDS011;3210;48.708;9.030;2022-08-23T05:26:52;5.03;;;2.90;;
6354;SDS011;3210;48.708;9.030;2022-08-23T05:29:18;5.50;;;2.70;;
6354;SDS011;3210;48.708;9.030;2022-08-23T05:31:45;2.63;;;2.43;;
6354;SDS011;3210;48.708;9.030;2022-08-23T05:34:12;4.63;;;2.47;;
6354;SDS011;3210;48.708;9.030;2022-08-23T05:36:39;5.30;;;2.60;;
6354;SDS011;3210;48.708;9.030;2022-08-23T05:39:06;6.57;;;3.00;;
6354;SDS011;3210;48.708;9.030;2022-08-23T05:41:34;15.60;;;2.33;;
6354;SDS011;3210;48.708;9.030;2022-08-23T05:44:01;7.83;;;3.30;;
6354;SDS011;3210;48.708;9.030;2022-08-23T05:46:28;9.50;;;2.87;;
6354;SDS011;3210;48.708;9.030;2022-08-23T05:48:55;6.40;;;3.10;;
6354;SDS011;3210;48.708;9.030;2022-08-23T05:51:22;13.67;;;4.00;;
6354;SDS011;3210;48.708;9.030;2022-08-23T05:53:51;9.50;;;4.13;;
6354;SDS011;3210;48.708;9.030;2022-08-23T05:56:20;7.83;;;4.27;;
6354;SDS011;3210;48.708;9.030;2022-08-23T05:58:50;13.93;;;4.70;;
6354;SDS011;3210;48.708;9.030;2022-08-23T06:01:18;12.57;;;4.83;;
6354;SDS011;3210;48.708;9.030;2022-08-23T06:03:51;5.90;;;4.07;;
6354;SDS011;3210;48.708;9.030;2022-08-23T06:06:19;14.03;;;3.90;;
6354;SDS011;3210;48.708;9.030;2022-08-23T06:08:47;10.93;;;4.30;;
6354;SDS011;3210;48.708;9.030;2022-08-23T06:11:15;10.23;;;3.63;;
6354;SDS011;3210;48.708;9.030;2022-08-23T06:13:44;22.67;;;4.40;;
6354;SDS011;3210;48.708;9.030;2022-08-23T06:16:15;11.73;;;4.50;;
6354;SDS011;3210;48.708;9.030;2022-08-23T06:18:43;16.27;;;3.90;;
6354;SDS011;3210;48.708;9.030;2022-08-23T06:21:11;19.40;;;5.17;;
6354;SDS011;3210;48.708;9.030;2022-08-23T06:23:40;24.23;;;4.87;;
6354;SDS011;3210;48.708;9.030;2022-08-23T06:26:10;28.63;;;5.20;;
6354;SDS011;3210;48.708;9.030;2022-08-23T06:28:39;13.60;;;4.27;;
6354;SDS011;3210;48.708;9.030;2022-08-23T06:31:07;11.83;;;4.90;;
6354;SDS011;3210;48.708;9.030;2022-08-23T06:33:36;18.70;;;4.77;;
6354;SDS011;3210;48.708;9.030;2022-08-23T06:36:07;13.23;;;5.00;;
6354;SDS011;3210;48.708;9.030;2022-08-23T06:38:35;16.00;;;5.27;;
6354;SDS011;3210;48.708;9.030;2022-08-23T06:41:03;13.73;;;4.57;;
6354;SDS011;3210;48.708;9.030;2022-08-23T06:43:31;15.67;;;3.80;;
6354;SDS011;3210;48.708;9.030;2022-08-23T06:46:05;8.00;;;4.50;;
6354;SDS011;3210;48.708;9.030;2022-08-23T06:48:35;8.90;;;3.67;;
6354;SDS011;3210;48.708;9.030;2022-08-23T06:51:07;6.13;;;3.90;;
6354;SDS011;3210;48.708;9.030;2022-08-23T06:53:35;12.20;;;4.60;;
6354;SDS011;3210;48.708;9.030;2022-08-23T06:56:02;5.50;;;3.90;;
6354;SDS011;3210;48.708;9.030;2022-08-23T06:58:29;8.83;;;4.23;;
6354;SDS011;3210;48.708;9.030;2022-08-23T07:01:04;10.17;;;3.67;;
6354;SDS011;3210;48.708;9.030;2022-08-23T07:03:36;9.80;;;4.30;;
6354;SDS011;3210;48.708;9.030;2022-08-23T07:06:02;14.63;;;3.90;;
6354;SDS011;3210;48.708;9.030;2022-08-23T07:08:29;10.93;;;3.67;;
6354;SDS011;3210;48.708;9.030;2022-08-23T07:10:56;5.20;;;4.10;;
6354;SDS011;3210;48.708;9.030;2022-08-23T07:13:24;9.53;;;3.67;;
6354;SDS011;3210;48.708;9.030;2022-08-23T07:15:50;14.27;;;3.43;;
6354;SDS011;3210;48.708;9.030;2022-08-23T07:18:22;4.90;;;3.20;;
6354;SDS011;3210;48.708;9.030;2022-08-23T07:20:54;5.50;;;3.07;;
6354;SDS011;3210;48.708;9.030;2022-08-23T07:23:22;6.13;;;3.47;;
6354;SDS011;3210;48.708;9.030;2022-08-23T07:25:49;7.83;;;3.07;;
6354;SDS011;3210;48.708;9.030;2022-08-23T07:28:16;4.93;;;3.03;;
6354;SDS011;3210;48.708;9.030;2022-08-23T07:30:43;4.77;;;3.57;;
6354;SDS011;3210;48.708;9.030;2022-08-23T07:33:11;8.23;;;3.60;;
6354;SDS011;3210;48.708;9.030;2022-08-23T07:35:44;6.20;;;3.20;;
6354;SDS011;3210;48.708;9.030;2022-08-23T07:38:14;11.90;;;3.43;;
6354;SDS011;3210;48.708;9.030;2022-08-23T07:40:42;8.33;;;3.00;;
6354;SDS011;3210;48.708;9.030;2022-08-23T07:43:09;5.50;;;2.77;;
6354;SDS011;3210;48.708;9.030;2022-08-23T07:45:37;7.33;;;2.90;;
6354;SDS011;3210;48.708;9.030;2022-08-23T07:48:05;4.03;;;2.10;;
6354;SDS011;3210;48.708;9.030;2022-08-23T07:50:31;10.57;;;3.53;;
6354;SDS011;3210;48.708;9.030;2022-08-23T07:52:58;2.40;;;2.10;;
6354;SDS011;3210;48.708;9.030;2022-08-23T07:55:28;5.23;;;2.33;;
6354;SDS011;3210;48.708;9.030;2022-08-23T07:57:55;5.27;;;2.43;;
6354;SDS011;3210;48.708;9.030;2022-08-23T08:00:22;5.50;;;2.60;;
6354;SDS011;3210;48.708;9.030;2022-08-23T08:02:48;1.77;;;1.63;;
6354;SDS011;3210;48.708;9.030;2022-08-23T08:05:15;11.70;;;2.67;;
6354;SDS011;3210;48.708;9.030;2022-08-23T08:07:42;4.07;;;2.70;;
6354;SDS011;3210;48.708;9.030;2022-08-23T08:10:09;7.30;;;2.53;;
6354;SDS011;3210;48.708;9.030;2022-08-23T08:12:38;7.43;;;2.63;;
6354;SDS011;3210;48.708;9.030;2022-08-23T08:15:05;4.33;;;1.70;;
6354;SDS011;3210;48.708;9.030;2022-08-23T08:17:32;4.83;;;2.33;;
6354;SDS011;3210;48.708;9.030;2022-08-23T08:19:59;4.03;;;2.10;;
6354;SDS011;3210;48.708;9.030;2022-08-23T08:22:26;5.90;;;1.90;;
6354;SDS011;3210;48.708;9.030;2022-08-23T08:24:53;2.80;;;2.17;;
6354;SDS011;3210;48.708;9.030;2022-08-23T08:27:19;3.50;;;2.30;;
6354;SDS011;3210;48.708;9.030;2022-08-23T08:29:47;4.77;;;2.40;;
6354;SDS011;3210;48.708;9.030;2022-08-23T08:32:14;5.07;;;1.93;;
6354;SDS011;3210;48.708;9.030;2022-08-23T08:34:41;6.10;;;2.07;;
6354;SDS011;3210;48.708;9.030;2022-08-23T08:37:08;3.97;;;1.80;;
6354;SDS011;3210;48.708;9.030;2022-08-23T08:39:35;5.77;;;2.23;;
6354;SDS011;3210;48.708;9.030;2022-08-23T08:42:14;13.57;;;2.73;;
6354;SDS011;3210;48.708;9.030;2022-08-23T08:44:52;22.87;;;3.90;;
6354;SDS011;3210;48.708;9.030;2022-08-23T08:47:33;6.10;;;2.30;;
6354;SDS011;3210;48.708;9.030;2022-08-23T08:50:05;2.87;;;1.77;;
6354;SDS011;3210;48.708;9.030;2022-08-23T08:52:41;10.87;;;1.90;;
6354;SDS011;3210;48.708;9.030;2022-08-23T08:55:15;6.90;;;2.47;;
6354;SDS011;3210;48.708;9.030;2022-08-23T08:57:46;1.87;;;1.60;;
6354;SDS011;3210;48.708;9.030;2022-08-23T09:00:16;1.90;;;1.63;;
6354;SDS011;3210;48.708;9.030;2022-08-23T09:02:45;5.03;;;1.83;;
6354;SDS011;3210;48.708;9.030;2022-08-23T09:05:13;4.37;;;2.13;;
6354;SDS011;3210;48.708;9.030;2022-08-23T09:07:45;3.20;;;1.87;;
6354;SDS011;3210;48.708;9.030;2022-08-23T09:10:27;3.73;;;1.77;;
6354;SDS011;3210;48.708;9.030;2022-08-23T09:13:19;36.03;;;4.70;;
6354;SDS011;3210;48.708;9.030;2022-08-23T09:16:08;5.60;;;1.80;;
6354;SDS011;3210;48.708;9.030;2022-08-23T09:18:42;3.13;;;1.73;;
6354;SDS011;3210;48.708;9.030;2022-08-23T09:21:10;3.60;;;1.47;;
6354;SDS011;3210;48.708;9.030;2022-08-23T09:23:41;3.63;;;1.63;;
6354;SDS011;3210;48.708;9.030;2022-08-23T09:26:16;3.53;;;1.63;;
6354;SDS011;3210;48.708;9.030;2022-08-23T09:28:46;2.80;;;2.00;;
6354;SDS011;3210;48.708;9.030;2022-08-23T09:34:02;3.57;;;1.80;;
6354;SDS011;3210;48.708;9.030;2022-08-23T09:36:30;4.83;;;1.70;;
6354;SDS011;3210;48.708;9.030;2022-08-23T09:39:00;3.30;;;1.80;;
6354;SDS011;3210;48.708;9.030;2022-08-23T09:41:31;2.77;;;1.47;;
6354;SDS011;3210;48.708;9.030;2022-08-23T09:44:01;3.53;;;1.93;;
6354;SDS011;3210;48.708;9.030;2022-08-23T09:46:30;3.20;;;1.83;;
6354;SDS011;3210;48.708;9.030;2022-08-23T09:49:06;1.60;;;1.50;;
6354;SDS011;3210;48.708;9.030;2022-08-23T09:51:48;2.03;;;1.50;;
6354;SDS011;3210;48.708;9.030;2022-08-23T09:54:17;4.30;;;1.50;;
6354;SDS011;3210;48.708;9.030;2022-08-23T09:56:49;1.93;;;1.30;;
6354;SDS011;3210;48.708;9.030;2022-08-23T09:59:19;3.22;;;1.70;;
6354;SDS011;3210;48.708;9.030;2022-08-23T10:01:48;11.00;;;2.10;;
6354;SDS011;3210;48.708;9.030;2022-08-23T10:04:20;9.30;;;1.87;;
6354;SDS011;3210;48.708;9.030;2022-08-23T10:06:49;3.72;;;2.22;;
6354;SDS011;3210;48.708;9.030;2022-08-23T10:09:22;3.20;;;1.55;;
6354;SDS011;3210;48.708;9.030;2022-08-23T10:11:51;10.63;;;1.80;;
6354;SDS011;3210;48.708;9.030;2022-08-23T10:14:18;2.65;;;1.13;;
6354;SDS011;3210;48.708;9.030;2022-08-23T10:16:51;3.75;;;1.60;;
6354;SDS011;3210;48.708;9.030;2022-08-23T10:19:27;3.50;;;2.38;;
6354;SDS011;3210;48.708;9.030;2022-08-23T10:22:06;1.60;;;1.33;;
6354;SDS011;3210;48.708;9.030;2022-08-23T10:24:40;5.57;;;1.60;;
6354;SDS011;3210;48.708;9.030;2022-08-23T10:27:14;2.63;;;1.38;;
6354;SDS011;3210;48.708;9.030;2022-08-23T10:30:10;4.25;;;1.58;;
6354;SDS011;3210;48.708;9.030;2022-08-23T10:32:43;2.55;;;1.90;;
6354;SDS011;3210;48.708;9.030;2022-08-23T10:35:28;3.10;;;1.10;;
6354;SDS011;3210;48.708;9.030;2022-08-23T10:38:08;4.22;;;1.50;;
6354;SDS011;3210;48.708;9.030;2022-08-23T10:40:45;6.20;;;1.48;;
6354;SDS011;3210;48.708;9.030;2022-08-23T10:43:22;3.92;;;1.55;;
6354;SDS011;3210;48.708;9.030;2022-08-23T10:46:01;6.78;;;1.70;;
6354;SDS011;3210;48.708;9.030;2022-08-23T10:48:33;5.15;;;1.85;;
6354;SDS011;3210;48.708;9.030;2022-08-23T10:51:05;6.97;;;1.42;;
6354;SDS011;3210;48.708;9.030;2022-08-23T10:53:37;2.55;;;1.77;;
6354;SDS011;3210;48.708;9.030;2022-08-23T10:56:10;4.95;;;1.95;;
6354;SDS011;3210;48.708;9.030;2022-08-23T10:58:44;4.95;;;1.98;;
6354;SDS011;3210;48.708;9.030;2022-08-23T11:01:13;11.05;;;1.50;;
6354;SDS011;3210;48.708;9.030;2022-08-23T11:03:45;4.57;;;2.00;;
6354;SDS011;3210;48.708;9.030;2022-08-23T11:06:40;2.30;;;1.70;;
6354;SDS011;3210;48.708;9.030;2022-08-23T11:12:21;3.95;;;1.67;;
6354;SDS011;3210;48.708;9.030;2022-08-23T11:14:58;2.30;;;1.48;;
6354;SDS011;3210;48.708;9.030;2022-08-23T11:17:40;1.95;;;1.42;;
6354;SDS011;3210;48.708;9.030;2022-08-23T11:23:34;2.88;;;1.52;;
6354;SDS011;3210;48.708;9.030;2022-08-23T11:29:29;2.10;;;1.90;;
6354;SDS011;3210;48.708;9.030;2022-08-23T11:32:12;3.78;;;1.30;;
6354;SDS011;3210;48.708;9.030;2022-08-23T11:34:49;7.43;;;1.65;;
6354;SDS011;3210;48.708;9.030;2022-08-23T11:37:22;3.20;;;1.92;;
6354;SDS011;3210;48.708;9.030;2022-08-23T11:40:04;7.53;;;1.67;;
6354;SDS011;3210;48.708;9.030;2022-08-23T11:42:45;2.60;;;1.73;;
6354;SDS011;3210;48.708;9.030;2022-08-23T11:45:21;3.80;;;1.13;;
6354;SDS011;3210;48.708;9.030;2022-08-23T11:48:03;2.85;;;1.40;;
6354;SDS011;3210;48.708;9.030;2022-08-23T11:50:40;1.60;;;1.50;;
6354;SDS011;3210;48.708;9.030;2022-08-23T11:53:20;2.42;;;1.60;;
6354;SDS011;3210;48.708;9.030;2022-08-23T11:59:07;3.80;;;2.10;;
6354;SDS011;3210;48.708;9.030;2022-08-23T12:01:45;2.33;;;1.45;;
6354;SDS011;3210;48.708;9.030;2022-08-23T12:04:25;3.80;;;1.77;;
6354;SDS011;3210;48.708;9.030;2022-08-23T12:06:57;1.83;;;1.33;;
6354;SDS011;3210;48.708;9.030;2022-08-23T12:09:52;3.53;;;1.30;;
6354;SDS011;3210;48.708;9.030;2022-08-23T12:12:29;5.35;;;1.73;;
6354;SDS011;3210;48.708;9.030;2022-08-23T12:15:06;1.85;;;1.30;;
6354;SDS011;3210;48.708;9.030;2022-08-23T12:20:39;3.45;;;1.60;;
6354;SDS011;3210;48.708;9.030;2022-08-23T12:23:16;2.65;;;1.52;;
6354;SDS011;3210;48.708;9.030;2022-08-23T12:25:45;1.88;;;1.55;;
6354;SDS011;3210;48.708;9.030;2022-08-23T12:28:31;2.20;;;1.42;;
6354;SDS011;3210;48.708;9.030;2022-08-23T12:31:06;4.45;;;2.00;;
6354;SDS011;3210;48.708;9.030;2022-08-23T12:33:43;3.30;;;1.67;;
6354;SDS011;3210;48.708;9.030;2022-08-23T12:36:21;2.25;;;1.40;;
6354;SDS011;3210;48.708;9.030;2022-08-23T12:38:57;1.75;;;1.30;;
6354;SDS011;3210;48.708;9.030;2022-08-23T12:41:29;1.98;;;1.52;;
6354;SDS011;3210;48.708;9.030;2022-08-23T12:44:16;2.40;;;1.63;;
6354;SDS011;3210;48.708;9.030;2022-08-23T12:46:47;4.00;;;1.77;;
6354;SDS011;3210;48.708;9.030;2022-08-23T12:49:22;2.65;;;1.70;;
6354;SDS011;3210;48.708;9.030;2022-08-23T12:51:52;1.38;;;1.27;;
6354;SDS011;3210;48.708;9.030;2022-08-23T12:54:21;3.72;;;1.50;;
6354;SDS011;3210;48.708;9.030;2022-08-23T12:56:57;2.60;;;1.40;;
6354;SDS011;3210;48.708;9.030;2022-08-23T12:59:29;4.10;;;1.58;;
6354;SDS011;3210;48.708;9.030;2022-08-23T13:02:02;2.20;;;1.30;;
6354;SDS011;3210;48.708;9.030;2022-08-23T13:04:31;7.63;;;2.08;;
6354;SDS011;3210;48.708;9.030;2022-08-23T13:07:02;2.78;;;1.60;;
6354;SDS011;3210;48.708;9.030;2022-08-23T13:09:32;2.58;;;1.73;;
6354;SDS011;3210;48.708;9.030;2022-08-23T13:12:02;3.80;;;1.95;;
6354;SDS011;3210;48.708;9.030;2022-08-23T13:14:33;3.83;;;1.58;;
6354;SDS011;3210;48.708;9.030;2022-08-23T13:17:12;2.75;;;1.77;;
6354;SDS011;3210;48.708;9.030;2022-08-23T13:19:47;11.85;;;1.55;;
6354;SDS011;3210;48.708;9.030;2022-08-23T13:22:20;1.50;;;1.40;;
6354;SDS011;3210;48.708;9.030;2022-08-23T13:25:02;2.08;;;1.42;;
6354;SDS011;3210;48.708;9.030;2022-08-23T13:27:32;2.25;;;1.85;;
6354;SDS011;3210;48.708;9.030;2022-08-23T13:30:01;2.05;;;1.65;;
6354;SDS011;3210;48.708;9.030;2022-08-23T13:32:46;2.10;;;1.52;;
6354;SDS011;3210;48.708;9.030;2022-08-23T13:35:21;2.70;;;1.40;;
6354;SDS011;3210;48.708;9.030;2022-08-23T13:37:55;2.28;;;1.58;;
6354;SDS011;3210;48.708;9.030;2022-08-23T13:40:26;3.25;;;1.67;;
6354;SDS011;3210;48.708;9.030;2022-08-23T13:42:56;4.28;;;1.48;;
6354;SDS011;3210;48.708;9.030;2022-08-23T13:45:26;2.78;;;1.70;;
6354;SDS011;3210;48.708;9.030;2022-08-23T13:47:57;2.55;;;1.42;;
6354;SDS011;3210;48.708;9.030;2022-08-23T13:50:27;4.07;;;1.52;;
6354;SDS011;3210;48.708;9.030;2022-08-23T13:52:55;3.75;;;1.73;;
6354;SDS011;3210;48.708;9.030;2022-08-23T13:55:23;3.15;;;1.92;;
6354;SDS011;3210;48.708;9.030;2022-08-23T13:57:51;4.25;;;1.70;;
6354;SDS011;3210;48.708;9.030;2022-08-23T14:00:18;5.47;;;1.67;;
6354;SDS011;3210;48.708;9.030;2022-08-23T14:02:45;3.33;;;1.77;;
6354;SDS011;3210;48.708;9.030;2022-08-23T14:05:15;6.95;;;2.35;;
6354;SDS011;3210;48.708;9.030;2022-08-23T14:07:44;9.68;;;1.73;;
6354;SDS011;3210;48.708;9.030;2022-08-23T14:10:12;5.88;;;2.17;;
6354;SDS011;3210;48.708;9.030;2022-08-23T14:12:42;3.28;;;1.50;;
6354;SDS011;3210;48.708;9.030;2022-08-23T14:15:10;2.05;;;1.80;;
6354;SDS011;3210;48.708;9.030;2022-08-23T14:17:39;4.07;;;1.70;;
6354;SDS011;3210;48.708;9.030;2022-08-23T14:20:08;4.40;;;1.40;;
6354;SDS011;3210;48.708;9.030;2022-08-23T14:22:38;2.78;;;1.40;;
6354;SDS011;3210;48.708;9.030;2022-08-23T14:25:05;2.53;;;1.98;;
6354;SDS011;3210;48.708;9.030;2022-08-23T14:27:33;2.78;;;1.63;;
6354;SDS011;3210;48.708;9.030;2022-08-23T14:30:01;2.03;;;1.48;;
6354;SDS011;3210;48.708;9.030;2022-08-23T14:32:29;3.88;;;1.52;;
6354;SDS011;3210;48.708;9.030;2022-08-23T14:34:56;2.78;;;1.60;;
6354;SDS011;3210;48.708;9.030;2022-08-23T14:37:23;3.08;;;1.48;;
6354;SDS011;3210;48.708;9.030;2022-08-23T14:39:52;4.95;;;2.20;;
6354;SDS011;3210;48.708;9.030;2022-08-23T14:42:28;4.25;;;1.83;;
6354;SDS011;3210;48.708;9.030;2022-08-23T14:44:58;3.42;;;1.50;;
6354;SDS011;3210;48.708;9.030;2022-08-23T14:47:26;3.47;;;1.75;;
6354;SDS011;3210;48.708;9.030;2022-08-23T14:49:53;3.53;;;1.52;;
6354;SDS011;3210;48.708;9.030;2022-08-23T14:52:20;4.93;;;1.85;;
6354;SDS011;3210;48.708;9.030;2022-08-23T14:54:47;3.28;;;2.00;;
6354;SDS011;3210;48.708;9.030;2022-08-23T14:57:16;3.13;;;2.22;;
6354;SDS011;3210;48.708;9.030;2022-08-23T14:59:43;2.05;;;1.60;;
6354;SDS011;3210;48.708;9.030;2022-08-23T15:02:11;4.15;;;1.40;;
6354;SDS011;3210;48.708;9.030;2022-08-23T15:04:40;1.92;;;1.83;;
6354;SDS011;3210;48.708;9.030;2022-08-23T15:07:07;4.57;;;1.70;;
6354;SDS011;3210;48.708;9.030;2022-08-23T15:09:34;3.15;;;1.52;;
6354;SDS011;3210;48.708;9.030;2022-08-23T15:12:01;3.33;;;1.58;;
6354;SDS011;3210;48.708;9.030;2022-08-23T15:14:30;5.15;;;1.90;;
6354;SDS011;3210;48.708;9.030;2022-08-23T15:16:57;2.60;;;1.42;;
6354;SDS011;3210;48.708;9.030;2022-08-23T15:19:27;3.13;;;2.05;;
6354;SDS011;3210;48.708;9.030;2022-08-23T15:21:54;5.03;;;1.90;;
6354;SDS011;3210;48.708;9.030;2022-08-23T15:24:20;3.47;;;1.48;;
6354;SDS011;3210;48.708;9.030;2022-08-23T15:26:47;2.85;;;1.83;;
6354;SDS011;3210;48.708;9.030;2022-08-23T15:29:14;4.10;;;2.15;;
6354;SDS011;3210;48.708;9.030;2022-08-23T15:31:42;3.65;;;1.77;;
6354;SDS011;3210;48.708;9.030;2022-08-23T15:34:09;4.68;;;1.65;;
6354;SDS011;3210;48.708;9.030;2022-08-23T15:36:37;5.55;;;1.83;;
6354;SDS011;3210;48.708;9.030;2022-08-23T15:39:06;4.40;;;1.52;;
6354;SDS011;3210;48.708;9.030;2022-08-23T15:41:33;2.50;;;1.70;;
6354;SDS011;3210;48.708;9.030;2022-08-23T15:44:00;4.10;;;1.77;;
6354;SDS011;3210;48.708;9.030;2022-08-23T15:46:27;3.67;;;1.85;;
6354;SDS011;3210;48.708;9.030;2022-08-23T15:48:56;3.05;;;1.88;;
6354;SDS011;3210;48.708;9.030;2022-08-23T15:51:26;5.72;;;1.90;;
6354;SDS011;3210;48.708;9.030;2022-08-23T15:53:52;4.95;;;2.03;;